Time;durP1;ratioP1;P1;durP2;ratioP2;P2;SDS_P1;SDS_P2;PMS_P1;PMS_P2;Temp;Humidity;BMP_temperature;BMP_pressure;BME280_temperature;BME280_humidity;BME280_pressure;Samples;Min_cycle;Max_cycle;Signal;HPM_P1;HPM_P2
2024/02/11 00:01:36;;;;;;;;;;;;;;;;;;2204675;59;2090;-17
2024/02/11 00:04:06;;;;;;;;;;;;;;;;;;2202999;59;1923;-17
2024/02/11 00:06:36;;;;;;;;;;;;;;;;;;2204224;67;1726;-17
2024/02/11 00:09:08;;;;;;;;;;;;;;;;;;2202843;59;1916;-18
2024/02/11 00:11:38;;;;;;;;;;;;;;;;;;2203501;67;1790;-17
2024/02/11 00:14:09;;;;;;;;;;;;;;;;;;2201821;59;2085;-17
2024/02/11 00:16:39;;;;;;;;;;;;;;;;;;2202849;67;1971;-17
2024/02/11 00:19:11;;;;;;;;;;;;;;;;;;2201041;67;2572;-17
2024/02/11 00:21:42;;;;;;;;;;;;;;;;;;2202807;67;1866;-17
2024/02/11 00:24:13;;;;;;;;;;;;;;;;;;2202492;59;2057;-17
2024/02/11 00:26:44;;;;;;;;;;;;;;;;;;2202822;67;1853;-17
2024/02/11 00:29:14;;;;;;;;;;;;;;;;;;2201149;67;1981;-17
2024/02/11 00:31:44;;;;;;;;;;;;;;;;;;2202760;67;1719;-17
2024/02/11 00:34:15;;;;;;;;;;;;;;;;;;2202729;59;1879;-17
2024/02/11 00:36:49;;;;;;;;;;;;;;;;;;2203065;59;1763;-17
2024/02/11 00:39:19;;;;;;;;;;;;;;;;;;2200979;59;3235;-17
2024/02/11 00:41:51;;;;;;;;;;;;;;;;;;2203125;59;1894;-17
2024/02/11 00:44:21;;;;;;;;;;;;;;;;;;2201557;67;1999;-17
2024/02/11 00:46:51;;;;;;;;;;;;;;;;;;2203339;59;1819;-17
2024/02/11 00:49:22;;;;;;;;;;;;;;;;;;2201367;59;2142;-17
2024/02/11 00:51:54;;;;;;;;;;;;;;;;;;2203514;59;1834;-17
2024/02/11 00:54:24;;;;;;;;;;;;;;;;;;2202547;59;1939;-17
2024/02/11 00:56:55;;;;;;;;;;;;;;;;;;2203119;59;1810;-17
2024/02/11 00:59:26;;;;;;;;;;;;;;;;;;2202701;67;1729;-17
2024/02/11 01:01:56;;;;;;;;;;;;;;;;;;2201971;59;1797;-17
2024/02/11 01:04:27;;;;;;;;;;;;;;;;;;2202192;67;1735;-17
2024/02/11 01:06:58;;;;;;;;;;;;;;;;;;2201881;67;1977;-17
2024/02/11 01:09:28;;;;;;;;;;;;;;;;;;2203602;67;1950;-17
2024/02/11 01:11:59;;;;;;;;;;;;;;;;;;2201284;67;3150;-17
2024/02/11 01:14:32;;;;;;;;;;;;;;;;;;2202533;59;2344;-16
2024/02/11 01:17:02;;;;;;;;;;;;;;;;;;2202194;67;3350;-16
2024/02/11 01:19:33;;;;;;;;;;;;;;;;;;2201772;67;1830;-16
2024/02/11 01:22:03;;;;;;;;;;;;;;;;;;2202393;67;1721;-16
2024/02/11 01:24:34;;;;;;;;;;;;;;;;;;2201795;67;2250;-17
2024/02/11 01:27:04;;;;;;;;;;;;;;;;;;2201647;67;1825;-16
2024/02/11 01:29:38;;;;;;;;;;;;;;;;;;2198905;60;2034;-20
2024/02/11 01:32:09;;;;;;;;;;;;;;;;;;2204448;67;1804;-17
2024/02/11 01:34:40;;;;;;;;;;;;;;;;;;2202565;59;1986;-16
2024/02/11 01:37:10;;;;;;;;;;;;;;;;;;2202591;59;1846;-17
2024/02/11 01:39:40;;;;;;;;;;;;;;;;;;2202902;59;1928;-16
2024/02/11 01:42:10;;;;;;;;;;;;;;;;;;2201883;59;2037;-16
2024/02/11 01:44:41;;;;;;;;;;;;;;;;;;2202116;59;2006;-16
2024/02/11 01:47:11;;;;;;;;;;;;;;;;;;2201172;59;2510;-16
2024/02/11 01:49:42;;;;;;;;;;;;;;;;;;2203268;59;1973;-16
2024/02/11 01:52:13;;;;;;;;;;;;;;;;;;2201584;59;1865;-16
2024/02/11 01:54:43;;;;;;;;;;;;;;;;;;2202675;59;1838;-16
2024/02/11 01:57:14;;;;;;;;;;;;;;;;;;2203045;67;1764;-16
2024/02/11 01:59:44;;;;;;;;;;;;;;;;;;2202451;67;2077;-17
2024/02/11 02:02:16;;;;;;;;;;;;;;;;;;2199372;59;2291;-17
2024/02/11 02:04:47;;;;;;;;;;;;;;;;;;2201844;67;1878;-16
2024/02/11 02:07:18;;;;;;;;;;;;;;;;;;2200884;67;1869;-16
2024/02/11 02:09:49;;;;;;;;;;;;;;;;;;2203102;59;2251;-17
2024/02/11 02:12:20;;;;;;;;;;;;;;;;;;2202135;59;1753;-17
2024/02/11 02:14:50;;;;;;;;;;;;;;;;;;2202822;59;1766;-17
2024/02/11 02:17:20;;;;;;;;;;;;;;;;;;2201204;67;2028;-17
2024/02/11 02:19:51;;;;;;;;;;;;;;;;;;2202177;67;1869;-17
2024/02/11 02:22:21;;;;;;;;;;;;;;;;;;2201449;59;2472;-17
2024/02/11 02:24:52;;;;;;;;;;;;;;;;;;2202698;67;1798;-17
2024/02/11 02:27:22;;;;;;;;;;;;;;;;;;2201821;67;1851;-17
2024/02/11 02:29:52;;;;;;;;;;;;;;;;;;2204035;59;3060;-17
2024/02/11 02:32:22;;;;;;;;;;;;;;;;;;2202136;59;2313;-17
2024/02/11 02:34:53;;;;;;;;;;;;;;;;;;2202608;59;2096;-17
2024/02/11 02:37:23;;;;;;;;;;;;;;;;;;2201386;59;1788;-17
2024/02/11 02:39:54;;;;;;;;;;;;;;;;;;2202477;67;2432;-17
2024/02/11 02:42:25;;;;;;;;;;;;;;;;;;2201825;59;1906;-17
2024/02/11 02:44:55;;;;;;;;;;;;;;;;;;2201677;67;1880;-17
2024/02/11 02:47:25;;;;;;;;;;;;;;;;;;2201415;59;1785;-17
2024/02/11 02:49:56;;;;;;;;;;;;;;;;;;2202337;59;1921;-17
2024/02/11 02:52:26;;;;;;;;;;;;;;;;;;2202122;59;2377;-17
2024/02/11 02:54:57;;;;;;;;;;;;;;;;;;2203007;59;1814;-17
2024/02/11 02:57:27;;;;;;;;;;;;;;;;;;2201115;67;1874;-17
2024/02/11 02:59:58;;;;;;;;;;;;;;;;;;2201611;59;2026;-17
2024/02/11 03:02:28;;;;;;;;;;;;;;;;;;2199717;59;1906;-17
2024/02/11 03:04:58;;;;;;;;;;;;;;;;;;2199680;59;1794;-17
2024/02/11 03:07:29;;;;;;;;;;;;;;;;;;2200585;67;2507;-17
2024/02/11 03:10:00;;;;;;;;;;;;;;;;;;2202413;59;1948;-17
2024/02/11 03:12:31;;;;;;;;;;;;;;;;;;2200959;67;2043;-17
2024/02/11 03:15:01;;;;;;;;;;;;;;;;;;2202721;59;1856;-17
2024/02/11 03:17:31;;;;;;;;;;;;;;;;;;2202192;67;2123;-17
2024/02/11 03:20:02;;;;;;;;;;;;;;;;;;2202172;67;1828;-17
2024/02/11 03:22:33;;;;;;;;;;;;;;;;;;2202100;59;2585;-17
2024/02/11 03:25:03;;;;;;;;;;;;;;;;;;2201160;67;1759;-17
2024/02/11 03:27:34;;;;;;;;;;;;;;;;;;2201079;67;2050;-17
2024/02/11 03:30:08;;;;;;;;;;;;;;;;;;2202514;67;1936;-17
2024/02/11 03:32:40;;;;;;;;;;;;;;;;;;2202363;59;1913;-17
2024/02/11 03:35:11;;;;;;;;;;;;;;;;;;2200380;59;1903;-18
2024/02/11 03:37:41;;;;;;;;;;;;;;;;;;2198857;59;1741;-17
2024/02/11 03:40:15;;;;;;;;;;;;;;;;;;2201452;67;1855;-17
2024/02/11 03:42:46;;;;;;;;;;;;;;;;;;2201544;67;2094;-18
2024/02/11 03:45:18;;;;;;;;;;;;;;;;;;2201668;67;1861;-18
2024/02/11 03:47:48;;;;;;;;;;;;;;;;;;2202112;59;1955;-18
2024/02/11 03:50:19;;;;;;;;;;;;;;;;;;2201536;59;1948;-18
2024/02/11 03:52:50;;;;;;;;;;;;;;;;;;2201811;59;2128;-17
2024/02/11 03:55:20;;;;;;;;;;;;;;;;;;2201788;59;1790;-18
2024/02/11 03:57:53;;;;;;;;;;;;;;;;;;2202849;59;1897;-17
2024/02/11 04:00:24;;;;;;;;;;;;;;;;;;2201218;59;1893;-17
2024/02/11 04:02:57;;;;;;;;;;;;;;;;;;2200156;59;1810;-17
2024/02/11 04:05:28;;;;;;;;;;;;;;;;;;2200946;59;2244;-18
2024/02/11 04:08:01;;;;;;;;;;;;;;;;;;2203443;59;1807;-17
2024/02/11 04:10:36;;;;;;;;;;;;;;;;;;2202329;67;1940;-18
2024/02/11 04:13:09;;;;;;;;;;;;;;;;;;2203197;67;1837;-17
2024/02/11 04:15:39;;;;;;;;;;;;;;;;;;2203492;59;1981;-17
2024/02/11 04:18:12;;;;;;;;;;;;;;;;;;2203399;67;2214;-17
2024/02/11 04:20:43;;;;;;;;;;;;;;;;;;2202692;67;1974;-17
2024/02/11 04:23:13;;;;;;;;;;;;;;;;;;2201926;59;2063;-17
2024/02/11 04:25:45;;;;;;;;;;;;;;;;;;2202906;67;1813;-17
2024/02/11 04:28:20;;;;;;;;;;;;;;;;;;2202805;67;1830;-18
2024/02/11 04:30:51;;;;;;;;;;;;;;;;;;2203104;60;2016;-17
2024/02/11 04:33:22;;;;;;;;;;;;;;;;;;2201457;59;1950;-17
2024/02/11 04:35:52;;;;;;;;;;;;;;;;;;2202645;59;2099;-18
2024/02/11 04:38:23;;;;;;;;;;;;;;;;;;2201752;59;2007;-17
2024/02/11 04:40:55;;;;;;;;;;;;;;;;;;2199564;59;3585;-17
2024/02/11 04:43:25;;;;;;;;;;;;;;;;;;2202339;67;1775;-18
2024/02/11 04:45:56;;;;;;;;;;;;;;;;;;2202348;59;2018;-17
2024/02/11 04:48:26;;;;;;;;;;;;;;;;;;2200471;59;2551;-20
2024/02/11 04:50:59;;;;;;;;;;;;;;;;;;2203022;59;1945;-20
2024/02/11 04:53:29;;;;;;;;;;;;;;;;;;2201610;59;1783;-20
2024/02/11 04:56:00;;;;;;;;;;;;;;;;;;2203133;59;1866;-20
2024/02/11 04:58:32;;;;;;;;;;;;;;;;;;2202101;59;2490;-20
2024/02/11 05:01:03;;;;;;;;;;;;;;;;;;2202984;67;2085;-20
2024/02/11 05:03:33;;;;;;;;;;;;;;;;;;2201475;59;1966;-20
2024/02/11 05:06:07;;;;;;;;;;;;;;;;;;2201805;59;1793;-20
2024/02/11 05:08:38;;;;;;;;;;;;;;;;;;2204233;59;1847;-21
2024/02/11 05:11:10;;;;;;;;;;;;;;;;;;2203399;67;2267;-20
2024/02/11 05:13:41;;;;;;;;;;;;;;;;;;2200958;59;1925;-21
2024/02/11 05:16:14;;;;;;;;;;;;;;;;;;2203293;67;2791;-22
2024/02/11 05:18:45;;;;;;;;;;;;;;;;;;2202971;59;1939;-21
2024/02/11 05:21:15;;;;;;;;;;;;;;;;;;2201839;67;2740;-22
2024/02/11 05:23:49;;;;;;;;;;;;;;;;;;2203924;59;2669;-21
2024/02/11 05:26:22;;;;;;;;;;;;;;;;;;2201486;59;1883;-21
2024/02/11 05:28:53;;;;;;;;;;;;;;;;;;2202115;67;1926;-21
2024/02/11 05:31:25;;;;;;;;;;;;;;;;;;2202198;67;2599;-21
2024/02/11 05:34:00;;;;;;;;;;;;;;;;;;2201970;59;1855;-21
2024/02/11 05:36:40;;;;;;;;;;;;;;;;;;2201732;67;1877;-21
2024/02/11 05:39:10;;;;;;;;;;;;;;;;;;2203910;59;1872;-21
2024/02/11 05:41:41;;;;;;;;;;;;;;;;;;2201338;59;1931;-21
2024/02/11 05:44:11;;;;;;;;;;;;;;;;;;2201386;67;2399;-22
2024/02/11 05:46:44;;;;;;;;;;;;;;;;;;2202687;59;2529;-21
2024/02/11 05:49:35;;;;;;;;;;;;;;;;;;2201354;59;1984;-21
2024/02/11 05:52:05;;;;;;;;;;;;;;;;;;2203902;59;1874;-22
2024/02/11 05:54:36;;;;;;;;;;;;;;;;;;2201993;67;2186;-20
2024/02/11 05:57:07;;;;;;;;;;;;;;;;;;2202420;59;1625;-21
2024/02/11 05:59:39;;;;;;;;;;;;;;;;;;2201785;67;2421;-21
2024/02/11 06:02:09;;;;;;;;;;;;;;;;;;2202513;59;1751;-21
2024/02/11 06:04:40;;;;;;;;;;;;;;;;;;2201817;67;2579;-21
2024/02/11 06:07:10;;;;;;;;;;;;;;;;;;2203169;59;1681;-20
2024/02/11 06:09:41;;;;;;;;;;;;;;;;;;2202774;59;2548;-21
2024/02/11 06:12:12;;;;;;;;;;;;;;;;;;2202007;67;1834;-21
2024/02/11 06:14:44;;;;;;;;;;;;;;;;;;2201722;59;2005;-21
2024/02/11 06:17:15;;;;;;;;;;;;;;;;;;2205879;67;1724;-22
2024/02/11 06:19:45;;;;;;;;;;;;;;;;;;2201747;60;1899;-22
2024/02/11 06:22:15;;;;;;;;;;;;;;;;;;2202656;59;1995;-22
2024/02/11 06:24:46;;;;;;;;;;;;;;;;;;2201644;59;1846;-21
2024/02/11 06:27:17;;;;;;;;;;;;;;;;;;2202525;67;2240;-22
2024/02/11 06:29:47;;;;;;;;;;;;;;;;;;2202607;67;2002;-21
2024/02/11 06:32:18;;;;;;;;;;;;;;;;;;2202776;59;1824;-22
2024/02/11 06:34:49;;;;;;;;;;;;;;;;;;2202944;59;1830;-21
2024/02/11 06:37:19;;;;;;;;;;;;;;;;;;2201704;59;2730;-20
2024/02/11 06:39:50;;;;;;;;;;;;;;;;;;2202678;67;2192;-21
2024/02/11 06:42:20;;;;;;;;;;;;;;;;;;2201902;59;2996;-20
2024/02/11 06:44:52;;;;;;;;;;;;;;;;;;2201591;67;2166;-21
2024/02/11 06:47:22;;;;;;;;;;;;;;;;;;2202011;59;1829;-21
2024/02/11 06:49:52;;;;;;;;;;;;;;;;;;2202140;59;1960;-21
2024/02/11 06:52:24;;;;;;;;;;;;;;;;;;2201605;59;2237;-22
2024/02/11 06:55:02;;;;;;;;;;;;;;;;;;2202139;59;1916;-21
2024/02/11 06:57:33;;;;;;;;;;;;;;;;;;2200357;59;1782;-22
2024/02/11 07:00:08;;;;;;;;;;;;;;;;;;2201868;59;1867;-21
2024/02/11 07:02:40;;;;;;;;;;;;;;;;;;2199632;59;2563;-21
2024/02/11 07:05:10;;;;;;;;;;;;;;;;;;2202350;67;1879;-21
2024/02/11 07:07:42;;;;;;;;;;;;;;;;;;2201472;67;2063;-21
2024/02/11 07:10:13;;;;;;;;;;;;;;;;;;2202841;59;1944;-21
2024/02/11 07:12:44;;;;;;;;;;;;;;;;;;2201130;67;1956;-21
2024/02/11 07:15:15;;;;;;;;;;;;;;;;;;2202270;59;2131;-20
2024/02/11 07:17:45;;;;;;;;;;;;;;;;;;2203186;67;1843;-20
2024/02/11 07:20:15;;;;;;;;;;;;;;;;;;2201946;67;1741;-20
2024/02/11 07:22:49;;;;;;;;;;;;;;;;;;2200015;59;2234;-20
2024/02/11 07:25:20;;;;;;;;;;;;;;;;;;2201228;67;2033;-22
2024/02/11 07:27:50;;;;;;;;;;;;;;;;;;2202047;60;1929;-20
2024/02/11 07:30:21;;;;;;;;;;;;;;;;;;2201081;67;2002;-22
2024/02/11 07:32:51;;;;;;;;;;;;;;;;;;2202514;59;2038;-21
2024/02/11 07:35:23;;;;;;;;;;;;;;;;;;2198789;67;1898;-21
2024/02/11 07:37:54;;;;;;;;;;;;;;;;;;2202818;59;1799;-21
2024/02/11 07:40:24;;;;;;;;;;;;;;;;;;2200905;67;1794;-21
2024/02/11 07:42:55;;;;;;;;;;;;;;;;;;2201921;59;2377;-21
2024/02/11 07:45:25;;;;;;;;;;;;;;;;;;2201702;67;1882;-21
2024/02/11 07:47:55;;;;;;;;;;;;;;;;;;2203261;59;1844;-20
2024/02/11 07:50:26;;;;;;;;;;;;;;;;;;2202664;59;1909;-21
2024/02/11 07:52:56;;;;;;;;;;;;;;;;;;2202778;59;2074;-21
2024/02/11 07:55:27;;;;;;;;;;;;;;;;;;2202295;59;2335;-21
2024/02/11 07:58:01;;;;;;;;;;;;;;;;;;2203669;59;1973;-20
2024/02/11 08:00:32;;;;;;;;;;;;;;;;;;2202268;59;1855;-20
2024/02/11 08:03:04;;;;;;;;;;;;;;;;;;2202891;67;2025;-21
2024/02/11 08:05:35;;;;;;;;;;;;;;;;;;2203203;67;1825;-20
2024/02/11 08:08:05;;;;;;;;;;;;;;;;;;2200265;67;2009;-20
2024/02/11 08:10:35;;;;;;;;;;;;;;;;;;2202864;67;1937;-20
2024/02/11 08:13:09;;;;;;;;;;;;;;;;;;2199436;59;2530;-21
2024/02/11 08:15:39;;;;;;;;;;;;;;;;;;2201575;59;1718;-20
2024/02/11 08:18:10;;;;;;;;;;;;;;;;;;2201503;67;2294;-21
2024/02/11 08:20:41;;;;;;;;;;;;;;;;;;2201361;67;1760;-20
2024/02/11 08:23:12;;;;;;;;;;;;;;;;;;2203067;59;1855;-20
2024/02/11 08:25:43;;;;;;;;;;;;;;;;;;2201449;67;2010;-21
2024/02/11 08:28:14;;;;;;;;;;;;;;;;;;2202249;67;3111;-20
2024/02/11 08:30:44;;;;;;;;;;;;;;;;;;2201638;67;2494;-20
2024/02/11 08:33:15;;;;;;;;;;;;;;;;;;2203129;59;2052;-21
2024/02/11 08:35:47;;;;;;;;;;;;;;;;;;2202079;59;1876;-21
2024/02/11 08:38:17;;;;;;;;;;;;;;;;;;2202645;59;1763;-21
2024/02/11 08:40:50;;;;;;;;;;;;;;;;;;2200893;59;1766;-20
2024/02/11 08:43:20;;;;;;;;;;;;;;;;;;2203300;67;1969;-20
2024/02/11 08:45:51;;;;;;;;;;;;;;;;;;2202015;59;2026;-20
2024/02/11 08:48:22;;;;;;;;;;;;;;;;;;2203049;59;1938;-20
2024/02/11 08:50:52;;;;;;;;;;;;;;;;;;2201349;59;1937;-20
2024/02/11 08:53:22;;;;;;;;;;;;;;;;;;2202505;67;1906;-20
2024/02/11 08:55:53;;;;;;;;;;;;;;;;;;2201293;59;1976;-21
2024/02/11 08:58:24;;;;;;;;;;;;;;;;;;2202828;59;3026;-20
2024/02/11 09:00:55;;;;;;;;;;;;;;;;;;2202690;59;1819;-20
2024/02/11 09:03:25;;;;;;;;;;;;;;;;;;2203386;59;2143;-21
2024/02/11 09:05:56;;;;;;;;;;;;;;;;;;2202475;59;2481;-21
2024/02/11 09:08:26;;;;;;;;;;;;;;;;;;2202310;59;1704;-21
2024/02/11 09:10:57;;;;;;;;;;;;;;;;;;2202350;67;1913;-20
2024/02/11 09:13:27;;;;;;;;;;;;;;;;;;2201532;59;1911;-21
2024/02/11 09:15:58;;;;;;;;;;;;;;;;;;2202752;59;1829;-23
2024/02/11 09:18:28;;;;;;;;;;;;;;;;;;2202324;67;1749;-20
2024/02/11 09:20:59;;;;;;;;;;;;;;;;;;2202608;67;2671;-20
2024/02/11 09:23:30;;;;;;;;;;;;;;;;;;2202162;59;1886;-20
2024/02/11 09:26:00;;;;;;;;;;;;;;;;;;2202596;67;1872;-21
2024/02/11 09:28:31;;;;;;;;;;;;;;;;;;2201879;67;1829;-20
2024/02/11 09:31:02;;;;;;;;;;;;;;;;;;2203053;67;1994;-20
2024/02/11 09:33:32;;;;;;;;;;;;;;;;;;2201674;59;2194;-20
2024/02/11 09:36:03;;;;;;;;;;;;;;;;;;2202100;59;2167;-20
2024/02/11 09:38:34;;;;;;;;;;;;;;;;;;2203491;59;2473;-21
2024/02/11 09:41:06;;;;;;;;;;;;;;;;;;2203643;59;1838;-20
2024/02/11 09:43:39;;;;;;;;;;;;;;;;;;2202536;59;2010;-20
2024/02/11 09:46:12;;;;;;;;;;;;;;;;;;2202953;59;2046;-20
2024/02/11 09:48:44;;;;;;;;;;;;;;;;;;2203325;59;1780;-21
2024/02/11 09:51:15;;;;;;;;;;;;;;;;;;2202219;59;1922;-21
2024/02/11 09:53:46;;;;;;;;;;;;;;;;;;2199908;59;2977;-21
2024/02/11 09:56:17;;;;;;;;;;;;;;;;;;2203481;59;2587;-20
2024/02/11 09:58:48;;;;;;;;;;;;;;;;;;2202072;59;1671;-20
2024/02/11 10:01:19;;;;;;;;;;;;;;;;;;2203032;59;2371;-20
2024/02/11 10:03:50;;;;;;;;;;;;;;;;;;2202621;59;1864;-20
2024/02/11 10:06:32;;;;;;;;;;;;;;;;;;2201892;59;2568;-21
2024/02/11 10:09:04;;;;;;;;;;;;;;;;;;2201770;59;3059;-20
2024/02/11 10:11:34;;;;;;;;;;;;;;;;;;2200898;59;3414;-20
2024/02/11 10:14:13;;;;;;;;;;;;;;;;;;2200830;59;2482;-20
2024/02/11 10:16:44;;;;;;;;;;;;;;;;;;2200767;59;2125;-21
2024/02/11 10:19:14;;;;;;;;;;;;;;;;;;2200995;67;1886;-21
2024/02/11 10:21:44;;;;;;;;;;;;;;;;;;2200620;67;1931;-20
2024/02/11 10:24:17;;;;;;;;;;;;;;;;;;2202024;59;2145;-21
2024/02/11 10:26:47;;;;;;;;;;;;;;;;;;2200727;67;1838;-20
2024/02/11 10:29:18;;;;;;;;;;;;;;;;;;2201029;67;1973;-20
2024/02/11 10:31:49;;;;;;;;;;;;;;;;;;2200578;67;1951;-20
2024/02/11 10:34:19;;;;;;;;;;;;;;;;;;2202767;59;1918;-20
2024/02/11 10:36:49;;;;;;;;;;;;;;;;;;2200769;59;1807;-20
2024/02/11 10:39:20;;;;;;;;;;;;;;;;;;2200593;59;2284;-20
2024/02/11 10:41:50;;;;;;;;;;;;;;;;;;2201308;59;1961;-21
2024/02/11 10:44:21;;;;;;;;;;;;;;;;;;2201297;67;1869;-20
2024/02/11 10:46:52;;;;;;;;;;;;;;;;;;2199993;59;2007;-20
2024/02/11 10:49:24;;;;;;;;;;;;;;;;;;2202022;59;1938;-20
2024/02/11 10:51:58;;;;;;;;;;;;;;;;;;2200694;67;2239;-20
2024/02/11 10:54:32;;;;;;;;;;;;;;;;;;2200332;59;1910;-21
2024/02/11 10:57:12;;;;;;;;;;;;;;;;;;2200399;67;1932;-20
2024/02/11 10:59:45;;;;;;;;;;;;;;;;;;2200403;67;1897;-21
2024/02/11 11:02:16;;;;;;;;;;;;;;;;;;2203264;59;1776;-20
2024/02/11 11:04:48;;;;;;;;;;;;;;;;;;2199384;59;1852;-20
2024/02/11 11:07:20;;;;;;;;;;;;;;;;;;2200461;59;2039;-20
2024/02/11 11:09:50;;;;;;;;;;;;;;;;;;2200079;67;1944;-21
2024/02/11 11:12:22;;;;;;;;;;;;;;;;;;2200983;67;2422;-20
2024/02/11 11:14:59;;;;;;;;;;;;;;;;;;2200458;59;1781;-20
2024/02/11 11:17:30;;;;;;;;;;;;;;;;;;2201289;67;1849;-20
2024/02/11 11:20:00;;;;;;;;;;;;;;;;;;2200975;67;2195;-20
2024/02/11 11:22:33;;;;;;;;;;;;;;;;;;2201883;59;1995;-20
2024/02/11 11:25:10;;;;;;;;;;;;;;;;;;2200749;67;1982;-18
2024/02/11 11:27:40;;;;;;;;;;;;;;;;;;2201363;67;2489;-18
2024/02/11 11:30:11;;;;;;;;;;;;;;;;;;2202169;67;1957;-18
2024/02/11 11:32:46;;;;;;;;;;;;;;;;;;2201783;59;1922;-18
2024/02/11 11:35:21;;;;;;;;;;;;;;;;;;2201507;67;1900;-18
2024/02/11 11:37:57;;;;;;;;;;;;;;;;;;2201720;59;1989;-18
2024/02/11 11:40:28;;;;;;;;;;;;;;;;;;2202625;67;1918;-18
2024/02/11 11:43:00;;;;;;;;;;;;;;;;;;2200986;59;1953;-18
2024/02/11 11:45:30;;;;;;;;;;;;;;;;;;2203205;59;1956;-18
2024/02/11 11:48:02;;;;;;;;;;;;;;;;;;2202024;59;2066;-18
2024/02/11 11:50:32;;;;;;;;;;;;;;;;;;2203058;59;1935;-18
2024/02/11 11:53:03;;;;;;;;;;;;;;;;;;2201832;59;2094;-18
2024/02/11 11:55:33;;;;;;;;;;;;;;;;;;2201731;59;2073;-18
2024/02/11 11:58:03;;;;;;;;;;;;;;;;;;2201456;59;1974;-18
2024/02/11 12:00:34;;;;;;;;;;;;;;;;;;2198957;59;1930;-18
2024/02/11 12:03:04;;;;;;;;;;;;;;;;;;2203200;67;1920;-18
2024/02/11 12:05:34;;;;;;;;;;;;;;;;;;2198516;67;1984;-18
2024/02/11 12:08:05;;;;;;;;;;;;;;;;;;2200837;59;2072;-18
2024/02/11 12:10:36;;;;;;;;;;;;;;;;;;2198876;59;2856;-18
2024/02/11 12:13:17;;;;;;;;;;;;;;;;;;2198122;59;2536;-18
2024/02/11 12:15:47;;;;;;;;;;;;;;;;;;2200775;67;1967;-18
2024/02/11 12:18:18;;;;;;;;;;;;;;;;;;2201958;67;2126;-18
2024/02/11 12:20:49;;;;;;;;;;;;;;;;;;2200984;67;2008;-18
2024/02/11 12:23:19;;;;;;;;;;;;;;;;;;2203438;59;1948;-18
2024/02/11 12:25:54;;;;;;;;;;;;;;;;;;2201511;67;2155;-18
2024/02/11 12:28:25;;;;;;;;;;;;;;;;;;2203058;59;1861;-17
2024/02/11 12:31:09;;;;;;;;;;;;;;;;;;2201423;67;1935;-18
2024/02/11 12:33:43;;;;;;;;;;;;;;;;;;2201416;59;1913;-17
2024/02/11 12:36:14;;;;;;;;;;;;;;;;;;2202029;59;1903;-18
2024/02/11 12:38:45;;;;;;;;;;;;;;;;;;2201916;59;2136;-18
2024/02/11 12:41:16;;;;;;;;;;;;;;;;;;2202650;59;2493;-18
2024/02/11 12:43:49;;;;;;;;;;;;;;;;;;2200691;67;1883;-17
2024/02/11 12:46:20;;;;;;;;;;;;;;;;;;2201246;59;1970;-18
2024/02/11 12:48:50;;;;;;;;;;;;;;;;;;2201051;59;1831;-18
2024/02/11 12:51:20;;;;;;;;;;;;;;;;;;2201945;59;2074;-18
2024/02/11 12:53:52;;;;;;;;;;;;;;;;;;2201449;67;2060;-18
2024/02/11 12:56:22;;;;;;;;;;;;;;;;;;2202178;59;1852;-18
2024/02/11 12:58:52;;;;;;;;;;;;;;;;;;2201181;59;2739;-18
2024/02/11 13:01:25;;;;;;;;;;;;;;;;;;2202099;59;2898;-18
2024/02/11 13:03:55;;;;;;;;;;;;;;;;;;2202116;59;1938;-18
2024/02/11 13:06:25;;;;;;;;;;;;;;;;;;2202706;59;1838;-18
2024/02/11 13:08:56;;;;;;;;;;;;;;;;;;2201704;59;2357;-18
2024/02/11 13:11:27;;;;;;;;;;;;;;;;;;2201585;59;2284;-22
2024/02/11 13:13:57;;;;;;;;;;;;;;;;;;2200593;59;2318;-17
2024/02/11 13:16:28;;;;;;;;;;;;;;;;;;2203319;67;1908;-18
2024/02/11 13:19:01;;;;;;;;;;;;;;;;;;2202362;67;2171;-18
2024/02/11 13:21:31;;;;;;;;;;;;;;;;;;2201725;67;2633;-18
2024/02/11 13:24:02;;;;;;;;;;;;;;;;;;2200794;59;2480;-17
2024/02/11 13:26:32;;;;;;;;;;;;;;;;;;2202030;67;1850;-17
2024/02/11 13:29:03;;;;;;;;;;;;;;;;;;2200794;63;2651;-17
2024/02/11 13:31:35;;;;;;;;;;;;;;;;;;2202482;67;1944;-18
2024/02/11 13:34:05;;;;;;;;;;;;;;;;;;2200770;59;1872;-18
2024/02/11 13:36:35;;;;;;;;;;;;;;;;;;2202328;59;1954;-18
2024/02/11 13:39:06;;;;;;;;;;;;;;;;;;2200603;59;1946;-18
2024/02/11 13:41:36;;;;;;;;;;;;;;;;;;2202689;59;1880;-18
2024/02/11 13:44:08;;;;;;;;;;;;;;;;;;2200861;67;1898;-18
2024/02/11 13:46:39;;;;;;;;;;;;;;;;;;2203020;59;1904;-17
2024/02/11 13:49:09;;;;;;;;;;;;;;;;;;2200772;59;1989;-17
2024/02/11 13:51:40;;;;;;;;;;;;;;;;;;2203264;59;1863;-18
2024/02/11 13:54:10;;;;;;;;;;;;;;;;;;2201212;59;2053;-17
2024/02/11 13:56:40;;;;;;;;;;;;;;;;;;2201662;59;1871;-18
2024/02/11 13:59:11;;;;;;;;;;;;;;;;;;2198842;67;2138;-17
2024/02/11 14:01:42;;;;;;;;;;;;;;;;;;2200830;59;1921;-18
2024/02/11 14:04:12;;;;;;;;;;;;;;;;;;2199903;59;2083;-18
2024/02/11 14:06:43;;;;;;;;;;;;;;;;;;2202305;67;1887;-18
2024/02/11 14:09:15;;;;;;;;;;;;;;;;;;2200986;67;2128;-18
2024/02/11 14:11:46;;;;;;;;;;;;;;;;;;2200525;67;1881;-17
2024/02/11 14:14:17;;;;;;;;;;;;;;;;;;2201111;59;2806;-18
2024/02/11 14:16:47;;;;;;;;;;;;;;;;;;2198267;67;2318;-18
2024/02/11 14:19:18;;;;;;;;;;;;;;;;;;2201662;67;1959;-18
2024/02/11 14:21:49;;;;;;;;;;;;;;;;;;2201110;67;1830;-20
2024/02/11 14:24:20;;;;;;;;;;;;;;;;;;2202152;67;1793;-18
2024/02/11 14:26:51;;;;;;;;;;;;;;;;;;2202443;67;1851;-18
2024/02/11 14:29:21;;;;;;;;;;;;;;;;;;2202957;67;1985;-17
2024/02/11 14:31:53;;;;;;;;;;;;;;;;;;2200926;67;2077;-17
2024/02/11 14:34:24;;;;;;;;;;;;;;;;;;2201435;59;1843;-17
2024/02/11 14:36:54;;;;;;;;;;;;;;;;;;2201109;59;1875;-17
2024/02/11 14:39:24;;;;;;;;;;;;;;;;;;2202002;59;1928;-18
2024/02/11 14:41:55;;;;;;;;;;;;;;;;;;2201548;59;1885;-20
2024/02/11 14:44:25;;;;;;;;;;;;;;;;;;2202598;67;2193;-20
2024/02/11 14:46:56;;;;;;;;;;;;;;;;;;2201696;59;2066;-20
2024/02/11 14:49:27;;;;;;;;;;;;;;;;;;2201298;67;1912;-20
2024/02/11 14:51:58;;;;;;;;;;;;;;;;;;2201406;59;1903;-20
2024/02/11 14:54:29;;;;;;;;;;;;;;;;;;2202773;59;2061;-17
2024/02/11 14:56:59;;;;;;;;;;;;;;;;;;2201264;59;1751;-20
2024/02/11 14:59:32;;;;;;;;;;;;;;;;;;2201433;67;1846;-20
2024/02/11 15:02:04;;;;;;;;;;;;;;;;;;2201548;59;2226;-20
2024/02/11 15:04:37;;;;;;;;;;;;;;;;;;2200857;59;2091;-17
2024/02/11 15:07:09;;;;;;;;;;;;;;;;;;2200696;59;1838;-17
2024/02/11 15:09:39;;;;;;;;;;;;;;;;;;2201388;59;3733;-18
2024/02/11 15:12:10;;;;;;;;;;;;;;;;;;2199425;59;2854;-27
2024/02/11 15:14:40;;;;;;;;;;;;;;;;;;2201390;59;3577;-19
2024/02/11 15:17:13;;;;;;;;;;;;;;;;;;2200460;59;2274;-20
2024/02/11 15:19:45;;;;;;;;;;;;;;;;;;2201785;67;1876;-20
2024/02/11 15:22:16;;;;;;;;;;;;;;;;;;2201382;59;2087;-20
2024/02/11 15:24:47;;;;;;;;;;;;;;;;;;2202824;67;1811;-20
2024/02/11 15:27:17;;;;;;;;;;;;;;;;;;2200695;59;2417;-20
2024/02/11 15:29:47;;;;;;;;;;;;;;;;;;2202194;67;1969;-18
2024/02/11 15:32:18;;;;;;;;;;;;;;;;;;2202028;59;1929;-17
2024/02/11 15:34:50;;;;;;;;;;;;;;;;;;2201967;67;2008;-17
2024/02/11 15:37:20;;;;;;;;;;;;;;;;;;2202015;59;1877;-18
2024/02/11 15:39:51;;;;;;;;;;;;;;;;;;2200470;67;1911;-17
2024/02/11 15:42:23;;;;;;;;;;;;;;;;;;2202221;59;1915;-17
2024/02/11 15:44:54;;;;;;;;;;;;;;;;;;2200448;67;1897;-17
2024/02/11 15:47:24;;;;;;;;;;;;;;;;;;2201534;59;1965;-18
2024/02/11 15:49:56;;;;;;;;;;;;;;;;;;2200581;59;2273;-18
2024/02/11 15:52:26;;;;;;;;;;;;;;;;;;2201401;59;2575;-17
2024/02/11 15:54:57;;;;;;;;;;;;;;;;;;2201609;59;1871;-18
2024/02/11 15:57:28;;;;;;;;;;;;;;;;;;2202256;59;2463;-18
2024/02/11 15:59:59;;;;;;;;;;;;;;;;;;2201838;67;1921;-18
2024/02/11 16:02:29;;;;;;;;;;;;;;;;;;2203869;59;1991;-18
2024/02/11 16:05:00;;;;;;;;;;;;;;;;;;2202007;67;2052;-17
2024/02/11 16:07:30;;;;;;;;;;;;;;;;;;2202303;59;2481;-20
2024/02/11 16:10:03;;;;;;;;;;;;;;;;;;2198526;67;2586;-20
2024/02/11 16:12:33;;;;;;;;;;;;;;;;;;2202317;67;1898;-19
2024/02/11 16:15:05;;;;;;;;;;;;;;;;;;2201955;59;1895;-20
2024/02/11 16:17:38;;;;;;;;;;;;;;;;;;2203151;67;2020;-20
2024/02/11 16:20:13;;;;;;;;;;;;;;;;;;2201425;67;1970;-20
2024/02/11 16:22:45;;;;;;;;;;;;;;;;;;2203103;59;1781;-18
2024/02/11 16:25:15;;;;;;;;;;;;;;;;;;2201018;67;2905;-18
2024/02/11 16:27:46;;;;;;;;;;;;;;;;;;2202519;59;1920;-18
2024/02/11 16:30:16;;;;;;;;;;;;;;;;;;2201512;67;1925;-17
2024/02/11 16:32:47;;;;;;;;;;;;;;;;;;2201802;59;2196;-18
2024/02/11 16:35:18;;;;;;;;;;;;;;;;;;2200917;67;1862;-18
2024/02/11 16:37:48;;;;;;;;;;;;;;;;;;2202687;59;1938;-18
2024/02/11 16:40:19;;;;;;;;;;;;;;;;;;2199992;59;2587;-26
2024/02/11 16:42:52;;;;;;;;;;;;;;;;;;2203457;59;2074;-18
2024/02/11 16:45:26;;;;;;;;;;;;;;;;;;2201140;67;2072;-17
2024/02/11 16:47:57;;;;;;;;;;;;;;;;;;2201633;59;1776;-17
2024/02/11 16:50:28;;;;;;;;;;;;;;;;;;2202433;59;2759;-18
2024/02/11 16:52:58;;;;;;;;;;;;;;;;;;2202262;59;1818;-17
2024/02/11 16:55:30;;;;;;;;;;;;;;;;;;2199287;59;1955;-18
2024/02/11 16:58:02;;;;;;;;;;;;;;;;;;2200599;67;2043;-18
2024/02/11 17:00:32;;;;;;;;;;;;;;;;;;2201998;59;1810;-18
2024/02/11 17:03:04;;;;;;;;;;;;;;;;;;2201147;67;1841;-18
2024/02/11 17:05:34;;;;;;;;;;;;;;;;;;2201663;67;2040;-18
2024/02/11 17:08:05;;;;;;;;;;;;;;;;;;2200933;67;2600;-18
2024/02/11 17:10:36;;;;;;;;;;;;;;;;;;2203052;59;2167;-18
2024/02/11 17:13:07;;;;;;;;;;;;;;;;;;2201102;67;2021;-18
2024/02/11 17:15:38;;;;;;;;;;;;;;;;;;2202110;59;3116;-19
2024/02/11 17:18:09;;;;;;;;;;;;;;;;;;2203144;59;1797;-19
2024/02/11 17:20:41;;;;;;;;;;;;;;;;;;2202515;59;1897;-19
2024/02/11 17:23:11;;;;;;;;;;;;;;;;;;2200773;59;1867;-20
2024/02/11 17:25:42;;;;;;;;;;;;;;;;;;2201876;59;1873;-19
2024/02/11 17:28:12;;;;;;;;;;;;;;;;;;2201644;67;1921;-19
2024/02/11 17:30:43;;;;;;;;;;;;;;;;;;2202399;67;1992;-19